Time;durP1;ratioP1;P1;durP2;ratioP2;P2;SDS_P1;SDS_P2;PMS_P1;PMS_P2;Temp;Humidity;BMP_temperature;BMP_pressure;BME280_temperature;BME280_humidity;BME280_pressure;Samples;Min_cycle;Max_cycle;Signal;HPM_P1;HPM_P2
2023/09/29 00:00:13;;;;;;;4.35;2.85;;;;;;;9.85;100.00;93427.84;2112870;28;20028;-78
2023/09/29 00:01:14;;;;;;;7.32;3.60;;;;;;;9.69;100.00;93428.44;2108530;28;20354;-79
2023/09/29 00:02:15;;;;;;;4.57;3.30;;;;;;;9.67;100.00;93422.00;2113448;28;20857;-81
2023/09/29 00:03:17;;;;;;;6.50;3.55;;;;;;;9.54;100.00;93425.19;2102217;28;20053;-79
2023/09/29 00:04:18;;;;;;;5.15;3.00;;;;;;;9.51;100.00;93423.31;2106423;28;20024;-79
2023/09/29 00:05:19;;;;;;;5.75;3.03;;;;;;;9.55;100.00;93424.03;2098132;28;20048;-78
2023/09/29 00:06:20;;;;;;;4.55;3.00;;;;;;;9.66;100.00;93423.13;2097842;28;20040;-78
2023/09/29 00:07:21;;;;;;;5.10;3.22;;;;;;;9.74;100.00;93422.63;2099677;28;20020;-80
2023/09/29 00:08:23;;;;;;;4.38;3.40;;;;;;;9.75;100.00;93423.41;2122542;27;20140;-79
2023/09/29 00:09:24;;;;;;;5.60;3.05;;;;;;;9.75;100.00;93420.75;2107370;28;20103;-79
2023/09/29 00:10:25;;;;;;;5.20;3.15;;;;;;;9.64;100.00;93428.13;2101322;28;20465;-80
2023/09/29 00:11:29;;;;;;;5.35;3.20;;;;;;;9.56;100.00;93420.22;2106350;28;20020;-80
2023/09/29 00:12:40;;;;;;;4.63;3.22;;;;;;;9.52;100.00;93419.50;2108777;28;20057;-78
2023/09/29 00:13:41;;;;;;;6.28;3.60;;;;;;;9.54;100.00;93422.53;2108009;28;20123;-80
2023/09/29 00:14:42;;;;;;;4.82;3.47;;;;;;;9.57;100.00;93429.00;2098043;28;20025;-77
2023/09/29 00:15:43;;;;;;;4.72;3.28;;;;;;;9.57;100.00;93424.41;2099640;28;20050;-79
2023/09/29 00:16:46;;;;;;;5.72;2.78;;;;;;;9.61;100.00;93423.59;2114961;27;20114;-80
2023/09/29 00:17:47;;;;;;;5.68;3.28;;;;;;;9.64;100.00;93423.53;2105173;28;20672;-79
2023/09/29 00:18:48;;;;;;;4.88;2.97;;;;;;;9.57;100.00;93418.31;2106534;28;20806;-79
2023/09/29 00:19:49;;;;;;;7.85;3.70;;;;;;;9.57;100.00;93421.00;2114636;28;20077;-79
2023/09/29 00:20:50;;;;;;;3.42;2.70;;;;;;;9.54;100.00;93425.19;2118862;27;20189;-80
2023/09/29 00:21:51;;;;;;;5.20;3.40;;;;;;;9.53;100.00;93428.28;2110384;28;20119;-81
2023/09/29 00:22:53;;;;;;;6.72;3.00;;;;;;;9.59;100.00;93422.09;2106048;28;20052;-79
2023/09/29 00:23:54;;;;;;;4.60;3.10;;;;;;;9.68;100.00;93423.50;2102080;28;20028;-79
2023/09/29 00:24:55;;;;;;;5.07;3.13;;;;;;;9.62;100.00;93422.44;2096930;28;20513;-80
2023/09/29 00:25:56;;;;;;;6.90;2.95;;;;;;;9.73;100.00;93420.38;2101201;28;20492;-80
2023/09/29 00:26:57;;;;;;;4.72;3.03;;;;;;;9.70;100.00;93426.50;2106565;28;20830;-80
2023/09/29 00:27:58;;;;;;;5.38;3.60;;;;;;;9.56;100.00;93419.44;2101290;28;20016;-81
2023/09/29 00:28:59;;;;;;;4.63;3.33;;;;;;;9.58;100.00;93425.16;2116726;27;20019;-78
2023/09/29 00:30:00;;;;;;;4.65;3.50;;;;;;;9.56;100.00;93428.22;2114952;28;20028;-80
2023/09/29 00:31:02;;;;;;;5.28;3.40;;;;;;;9.55;100.00;93418.69;2118411;27;20026;-79
2023/09/29 00:32:05;;;;;;;4.60;3.42;;;;;;;9.61;100.00;93418.25;2123495;27;20019;-81
2023/09/29 00:33:06;;;;;;;6.93;3.22;;;;;;;9.66;100.00;93420.47;2106343;28;20020;-80
2023/09/29 00:34:07;;;;;;;5.80;3.70;;;;;;;9.65;100.00;93418.97;2106154;28;20497;-79
2023/09/29 00:35:17;;;;;;;5.03;3.38;;;;;;;9.57;100.00;93419.06;2120208;27;21753;-80
2023/09/29 00:36:18;;;;;;;8.38;3.40;;;;;;;9.58;100.00;93420.56;2106004;28;20050;-78
2023/09/29 00:37:19;;;;;;;4.20;3.28;;;;;;;9.55;100.00;93423.28;2097806;28;20036;-80
2023/09/29 00:38:20;;;;;;;5.57;3.60;;;;;;;9.58;100.00;93415.25;2097877;28;20127;-79
2023/09/29 00:39:21;;;;;;;4.47;3.22;;;;;;;9.52;100.00;93416.06;2107348;27;20043;-80
2023/09/29 00:40:23;;;;;;;6.35;3.35;;;;;;;9.50;100.00;93408.47;2114714;27;20096;-78
2023/09/29 00:41:24;;;;;;;6.10;3.55;;;;;;;9.45;100.00;93416.19;2107199;28;20026;-79
2023/09/29 00:42:25;;;;;;;5.30;3.45;;;;;;;9.40;100.00;93414.72;2098987;28;20021;-78
2023/09/29 00:43:27;;;;;;;5.93;3.85;;;;;;;9.37;100.00;93412.09;2114758;28;20069;-79
2023/09/29 00:44:28;;;;;;;4.88;3.30;;;;;;;9.34;100.00;93411.72;2120112;27;20019;-80
2023/09/29 00:45:29;;;;;;;7.60;3.20;;;;;;;9.34;100.00;93408.28;2114380;28;20446;-79
2023/09/29 00:46:30;;;;;;;6.10;3.63;;;;;;;9.41;100.00;93405.56;2105299;28;20697;-81
2023/09/29 00:47:38;;;;;;;5.97;3.65;;;;;;;9.50;100.00;93411.16;2122842;27;20026;-78
2023/09/29 00:48:40;;;;;;;3.97;3.05;;;;;;;9.53;100.00;93412.28;2115419;27;20064;-78
2023/09/29 00:49:41;;;;;;;5.82;3.45;;;;;;;9.42;100.00;93409.72;2100578;28;20628;-80
2023/09/29 00:50:44;;;;;;;4.00;3.28;;;;;;;9.45;100.00;93410.84;2098377;28;20450;-80
2023/09/29 00:51:46;;;;;;;5.55;3.40;;;;;;;9.41;100.00;93402.88;2106740;28;20028;-80
2023/09/29 00:52:50;;;;;;;5.68;3.33;;;;;;;9.43;100.00;93413.91;2102119;28;20485;-78
2023/09/29 00:53:52;;;;;;;4.68;3.60;;;;;;;9.55;100.00;93412.63;2090489;28;20111;-81
2023/09/29 00:54:53;;;;;;;7.60;3.67;;;;;;;9.49;100.00;93414.22;2097128;28;20104;-79
2023/09/29 00:55:55;;;;;;;5.55;3.50;;;;;;;9.41;100.00;93410.88;2097832;28;20074;-79
2023/09/29 00:56:59;;;;;;;5.72;3.67;;;;;;;9.32;100.00;93410.63;2097981;28;20059;-81
2023/09/29 00:58:00;;;;;;;10.00;3.58;;;;;;;9.34;100.00;93411.72;2092809;28;20111;-80
2023/09/29 00:59:05;;;;;;;4.90;3.80;;;;;;;9.46;100.00;93415.78;2089886;28;20367;-80
2023/09/29 01:00:18;;;;;;;5.72;3.80;;;;;;;9.40;100.00;93409.38;2107407;27;20058;-81
2023/09/29 01:01:19;;;;;;;6.90;3.20;;;;;;;9.39;100.00;93407.84;2107509;28;20020;-79
2023/09/29 01:02:21;;;;;;;4.25;3.47;;;;;;;9.40;100.00;93412.06;2106381;28;20542;-80
2023/09/29 01:03:22;;;;;;;4.18;3.53;;;;;;;9.37;100.00;93410.16;2105043;28;20027;-79
2023/09/29 01:04:23;;;;;;;6.28;3.25;;;;;;;9.46;100.00;93412.34;2106015;28;20028;-80
2023/09/29 01:05:25;;;;;;;6.90;3.65;;;;;;;9.25;100.00;93408.78;2106094;28;20024;-79
2023/09/29 01:06:29;;;;;;;5.43;3.40;;;;;;;9.25;100.00;93405.38;2114480;27;20015;-80
2023/09/29 01:07:31;;;;;;;5.68;3.03;;;;;;;9.22;100.00;93406.16;2114682;28;20047;-79
2023/09/29 01:08:32;;;;;;;7.25;3.13;;;;;;;9.28;100.00;93410.66;2121840;27;20027;-79
2023/09/29 01:09:33;;;;;;;4.90;3.42;;;;;;;9.26;100.00;93402.31;2122623;27;20019;-79
2023/09/29 01:10:37;;;;;;;5.10;3.38;;;;;;;9.30;100.00;93399.59;2114275;28;20023;-80
2023/09/29 01:11:43;;;;;;;6.60;3.67;;;;;;;9.24;100.00;93406.53;2108957;28;20038;-81
2023/09/29 01:12:44;;;;;;;5.85;3.58;;;;;;;9.23;100.00;93400.44;2106059;28;20024;-78
2023/09/29 01:13:45;;;;;;;5.18;3.50;;;;;;;9.23;100.00;93402.34;2106039;28;20097;-78
2023/09/29 01:14:46;;;;;;;5.50;3.60;;;;;;;9.24;100.00;93403.84;2101849;28;20032;-81
2023/09/29 01:15:47;;;;;;;4.43;3.20;;;;;;;9.23;100.00;93407.69;2097738;28;20067;-80
2023/09/29 01:16:49;;;;;;;5.28;3.50;;;;;;;9.21;100.00;93408.06;2097399;28;20025;-79
2023/09/29 01:17:51;;;;;;;5.72;3.38;;;;;;;9.23;100.00;93403.09;2105822;27;20108;-80
2023/09/29 01:18:52;;;;;;;5.40;3.63;;;;;;;9.27;100.00;93408.41;2114255;28;20043;-80
2023/09/29 01:20:00;;;;;;;4.47;3.38;;;;;;;9.25;100.00;93403.44;2105810;28;20027;-79
2023/09/29 01:21:03;;;;;;;4.80;3.20;;;;;;;9.23;100.00;93403.09;2099353;28;20047;-80
2023/09/29 01:22:04;;;;;;;6.97;3.40;;;;;;;9.20;100.00;93400.47;2106037;28;20020;-79
2023/09/29 01:23:05;;;;;;;4.38;3.08;;;;;;;9.11;100.00;93406.28;2101212;28;20020;-79
2023/09/29 01:24:07;;;;;;;4.43;2.88;;;;;;;9.14;100.00;93404.75;2094675;28;20030;-78
2023/09/29 01:25:09;;;;;;;7.35;3.53;;;;;;;9.09;100.00;93400.63;2089205;28;20021;-82
2023/09/29 01:26:10;;;;;;;5.20;3.67;;;;;;;9.06;100.00;93404.81;2091364;28;20021;-81
2023/09/29 01:27:11;;;;;;;6.03;3.53;;;;;;;9.16;100.00;93403.19;2114115;28;20084;-80
2023/09/29 01:28:13;;;;;;;5.55;3.70;;;;;;;9.25;100.00;93406.13;2092491;28;20460;-79
2023/09/29 01:29:15;;;;;;;4.60;3.30;;;;;;;9.33;100.00;93404.13;2105640;28;20161;-79
2023/09/29 01:30:18;;;;;;;4.72;3.28;;;;;;;9.26;100.00;93402.31;2105680;28;20124;-79
2023/09/29 01:31:19;;;;;;;6.00;3.47;;;;;;;9.25;100.00;93406.13;2109726;28;20023;-80
2023/09/29 01:32:20;;;;;;;6.93;3.42;;;;;;;9.25;100.00;93403.44;2105924;28;20020;-78
2023/09/29 01:33:21;;;;;;;4.75;3.92;;;;;;;9.24;100.00;93403.84;2111556;28;20493;-79
2023/09/29 01:34:24;;;;;;;6.25;3.75;;;;;;;9.22;100.00;93411.50;2105724;28;20580;-79
2023/09/29 01:35:27;;;;;;;6.72;3.78;;;;;;;9.17;100.00;93401.25;2105890;28;20020;-80
2023/09/29 01:36:29;;;;;;;6.28;3.25;;;;;;;9.26;100.00;93406.88;2102008;28;20507;-78
2023/09/29 01:37:30;;;;;;;5.43;3.33;;;;;;;9.34;100.00;93410.97;2106037;28;20074;-79
2023/09/29 01:38:31;;;;;;;5.15;3.60;;;;;;;9.25;100.00;93411.44;2096206;28;20029;-79
2023/09/29 01:39:31;;;;;;;6.38;3.50;;;;;;;9.31;100.00;93409.13;2098323;28;20047;-79
2023/09/29 01:40:34;;;;;;;6.28;4.10;;;;;;;9.24;100.00;93403.84;2097385;28;20028;-81
2023/09/29 01:41:35;;;;;;;5.18;3.45;;;;;;;9.13;100.00;93409.34;2110680;27;20020;-79
2023/09/29 01:42:36;;;;;;;4.22;3.33;;;;;;;9.19;100.00;93409.63;2114105;28;20047;-78
2023/09/29 01:43:37;;;;;;;6.28;3.60;;;;;;;9.20;100.00;93401.22;2105487;28;20028;-79
2023/09/29 01:44:38;;;;;;;4.90;3.67;;;;;;;9.19;100.00;93406.97;2097506;28;20016;-80
2023/09/29 01:45:39;;;;;;;4.40;3.30;;;;;;;9.13;100.00;93406.66;2106948;28;20024;-78
2023/09/29 01:46:40;;;;;;;5.05;3.50;;;;;;;9.13;100.00;93403.22;2117948;27;20194;-81
2023/09/29 01:47:43;;;;;;;5.65;3.97;;;;;;;9.05;100.00;93405.97;2106780;28;20040;-79
2023/09/29 01:48:44;;;;;;;5.72;3.40;;;;;;;9.06;100.00;93401.41;2113723;28;20027;-79
2023/09/29 01:49:48;;;;;;;6.30;3.53;;;;;;;9.06;100.00;93404.06;2103191;28;20372;-77
2023/09/29 01:50:48;;;;;;;4.10;3.60;;;;;;;9.10;100.00;93399.44;2089870;28;20033;-78
2023/09/29 01:51:50;;;;;;;4.90;3.28;;;;;;;9.00;100.00;93401.09;2111084;28;20024;-78
2023/09/29 01:53:19;;;;;;;4.13;3.72;;;;;;;9.01;100.00;93409.84;2113979;28;20495;-80
2023/09/29 01:54:20;;;;;;;5.45;3.90;;;;;;;8.98;100.00;93408.72;2117906;27;20106;-79
2023/09/29 01:55:23;;;;;;;4.78;3.65;;;;;;;8.90;100.00;93401.19;2113994;28;20023;-78
2023/09/29 01:56:26;;;;;;;4.07;3.45;;;;;;;8.88;100.00;93406.19;2112321;28;20023;-81
2023/09/29 01:57:27;;;;;;;4.05;3.55;;;;;;;8.96;100.00;93412.94;2097137;28;20023;-80
2023/09/29 01:58:29;;;;;;;4.90;3.55;;;;;;;8.98;100.00;93403.38;2108156;28;20027;-80
2023/09/29 01:59:30;;;;;;;6.95;3.58;;;;;;;9.02;100.00;93409.44;2105641;28;20047;-80
2023/09/29 02:00:31;;;;;;;6.28;3.70;;;;;;;9.07;100.00;93411.66;2113452;28;20027;-78
2023/09/29 02:01:37;;;;;;;4.47;3.58;;;;;;;9.21;100.00;93408.06;2105630;28;20028;-78
2023/09/29 02:02:38;;;;;;;4.72;3.38;;;;;;;9.31;100.00;93401.88;2122490;27;20030;-79
2023/09/29 02:03:38;;;;;;;5.22;3.60;;;;;;;9.33;100.00;93407.53;2122290;27;20019;-80
2023/09/29 02:04:40;;;;;;;4.88;3.50;;;;;;;9.38;100.00;93409.00;2114074;28;20401;-79
2023/09/29 02:05:41;;;;;;;4.68;3.70;;;;;;;9.30;100.00;93402.25;2105665;28;20020;-82
2023/09/29 02:06:42;;;;;;;7.05;3.42;;;;;;;9.28;100.00;93405.31;2105572;28;20024;-78
2023/09/29 02:07:44;;;;;;;8.55;4.22;;;;;;;9.27;100.00;93395.81;2094995;28;20438;-78
2023/09/29 02:08:45;;;;;;;6.85;3.95;;;;;;;9.30;100.00;93394.25;2089464;28;20170;-79
2023/09/29 02:09:47;;;;;;;4.47;3.80;;;;;;;9.32;100.00;93399.94;2107054;27;20024;-80
2023/09/29 02:10:49;;;;;;;7.28;4.03;;;;;;;9.20;100.00;93395.91;2114075;28;20054;-78
2023/09/29 02:11:53;;;;;;;4.90;3.50;;;;;;;9.30;100.00;93395.00;2105921;28;20042;-79
2023/09/29 02:12:57;;;;;;;3.83;3.22;;;;;;;9.27;100.00;93400.41;2114640;27;20043;-78
2023/09/29 02:13:58;;;;;;;8.27;4.32;;;;;;;9.16;100.00;93399.75;2114012;28;20103;-77
2023/09/29 02:15:00;;;;;;;8.73;3.80;;;;;;;9.15;100.00;93396.34;2105840;28;20089;-79
2023/09/29 02:16:08;;;;;;;5.18;4.00;;;;;;;9.17;100.00;93402.00;2105462;28;20028;-79
2023/09/29 02:17:10;;;;;;;4.95;3.80;;;;;;;9.20;100.00;93400.47;2090632;28;20085;-79
2023/09/29 02:18:11;;;;;;;6.78;3.95;;;;;;;9.15;100.00;93400.91;2097290;28;20119;-79
2023/09/29 02:19:12;;;;;;;5.45;3.65;;;;;;;9.15;100.00;93403.59;2105635;28;20526;-80
2023/09/29 02:20:15;;;;;;;4.80;3.45;;;;;;;9.17;100.00;93403.94;2097179;28;20327;-79
2023/09/29 02:23:20;;;;;;;5.75;3.70;;;;;;;8.98;100.00;93399.97;2138988;27;20182;-82
2023/09/29 02:24:21;;;;;;;4.68;4.00;;;;;;;8.93;100.00;93405.75;2112764;28;20056;-78
2023/09/29 02:25:26;;;;;;;5.70;3.88;;;;;;;9.10;100.00;93398.69;2104177;28;20038;-80
2023/09/29 02:26:29;;;;;;;8.07;4.65;;;;;;;9.10;100.00;93396.78;2103478;28;20032;-82
2023/09/29 02:27:30;;;;;;;8.55;4.35;;;;;;;9.06;100.00;93401.41;2088095;28;20036;-82
2023/09/29 02:28:32;;;;;;;7.90;4.30;;;;;;;8.98;100.00;93392.72;2100344;28;20047;-80
2023/09/29 02:29:33;;;;;;;6.10;4.55;;;;;;;8.96;100.00;93396.94;2095285;28;20029;-80
2023/09/29 02:30:34;;;;;;;5.55;4.10;;;;;;;8.86;100.00;93392.47;2108587;28;20138;-82
2023/09/29 02:31:36;;;;;;;6.68;4.20;;;;;;;8.76;100.00;93386.88;2117290;28;20027;-79
2023/09/29 02:32:41;;;;;;;6.32;4.13;;;;;;;8.74;100.00;93389.19;2110521;28;20024;-81
2023/09/29 02:33:42;;;;;;;6.00;4.30;;;;;;;8.82;100.00;93387.19;2103146;28;20036;-82
2023/09/29 02:34:43;;;;;;;6.75;3.83;;;;;;;8.84;100.00;93392.88;2103970;28;20051;-79
2023/09/29 02:35:44;;;;;;;4.90;3.78;;;;;;;8.87;100.00;93393.97;2103868;28;20500;-82
2023/09/29 02:36:45;;;;;;;5.65;4.10;;;;;;;8.87;100.00;93389.44;2103683;28;20028;-80
2023/09/29 02:37:47;;;;;;;6.30;3.90;;;;;;;8.87;100.00;93389.44;2104121;28;20043;-82
2023/09/29 02:38:48;;;;;;;6.60;4.18;;;;;;;8.78;100.00;93386.44;2097521;28;20368;-82
2023/09/29 02:39:49;;;;;;;5.78;4.65;;;;;;;8.79;100.00;93390.66;2098979;28;20031;-81
2023/09/29 02:40:50;;;;;;;5.13;4.20;;;;;;;8.84;100.00;93387.56;2104322;28;20035;-82
2023/09/29 02:41:51;;;;;;;4.78;4.10;;;;;;;8.87;100.00;93385.97;2099886;28;20016;-82
2023/09/29 02:42:53;;;;;;;5.32;4.68;;;;;;;8.86;100.00;93389.81;2112739;27;20047;-80
2023/09/29 02:43:54;;;;;;;6.05;4.25;;;;;;;8.76;100.00;93386.09;2120995;28;20440;-80
2023/09/29 02:44:55;;;;;;;5.30;4.13;;;;;;;8.69;100.00;93394.94;2103788;28;20024;-78
2023/09/29 02:45:56;;;;;;;7.00;4.60;;;;;;;8.71;100.00;93387.31;2112520;28;20443;-81
2023/09/29 02:46:58;;;;;;;5.53;4.25;;;;;;;8.79;100.00;93388.75;2119509;28;20064;-82
2023/09/29 02:47:59;;;;;;;5.40;4.50;;;;;;;8.77;100.00;93395.59;2104015;28;20111;-79
2023/09/29 02:49:00;;;;;;;6.00;4.35;;;;;;;8.80;100.00;93392.16;2112251;27;20112;-81
2023/09/29 02:50:01;;;;;;;6.10;4.55;;;;;;;8.80;100.00;93384.16;2120703;28;20020;-82
2023/09/29 02:51:02;;;;;;;7.05;4.35;;;;;;;8.74;100.00;93385.75;2112558;28;20036;-81
2023/09/29 02:52:04;;;;;;;5.30;4.20;;;;;;;8.92;100.00;93388.25;2111767;28;20440;-82
2023/09/29 02:53:05;;;;;;;5.88;4.43;;;;;;;8.86;100.00;93390.56;2104141;28;20031;-81
2023/09/29 02:54:06;;;;;;;6.50;3.83;;;;;;;8.92;100.00;93390.91;2095805;28;20030;-82
2023/09/29 02:55:12;;;;;;;5.43;4.18;;;;;;;8.95;100.00;93390.84;2095498;28;20017;-83
2023/09/29 02:56:16;;;;;;;6.55;4.53;;;;;;;8.85;100.00;93394.38;2097179;28;20081;-82
2023/09/29 02:57:17;;;;;;;5.32;4.05;;;;;;;8.87;100.00;93396.66;2104461;28;20016;-80
2023/09/29 02:58:19;;;;;;;5.13;3.75;;;;;;;8.80;100.00;93386.81;2102928;28;20133;-82
2023/09/29 02:59:20;;;;;;;5.40;4.18;;;;;;;8.81;100.00;93391.00;2087690;28;20540;-81
2023/09/29 03:00:27;;;;;;;7.60;4.03;;;;;;;8.81;100.00;93388.34;2101131;28;20021;-81
2023/09/29 03:01:27;;;;;;;6.53;4.40;;;;;;;8.71;100.00;93387.31;2105739;28;20032;-80
2023/09/29 03:02:28;;;;;;;5.25;3.83;;;;;;;8.76;100.00;93394.84;2120819;28;20398;-82
2023/09/29 03:03:30;;;;;;;7.57;4.30;;;;;;;8.73;100.00;93389.56;2120760;28;20023;-79
2023/09/29 03:04:30;;;;;;;5.50;4.30;;;;;;;8.69;100.00;93391.50;2112459;28;20028;-80
2023/09/29 03:05:32;;;;;;;5.65;4.20;;;;;;;8.68;100.00;93390.00;2103819;28;20494;-82
2023/09/29 03:06:33;;;;;;;4.82;3.85;;;;;;;8.61;100.00;93382.84;2095532;28;20025;-80
2023/09/29 03:07:35;;;;;;;5.45;3.90;;;;;;;8.63;100.00;93391.19;2095593;28;20024;-80
2023/09/29 03:08:36;;;;;;;6.80;4.15;;;;;;;8.62;100.00;93400.34;2095582;28;20446;-81
2023/09/29 03:09:37;;;;;;;6.30;4.10;;;;;;;8.65;100.00;93396.09;2103958;28;20468;-80
2023/09/29 03:10:38;;;;;;;5.15;3.85;;;;;;;8.69;100.00;93391.50;2120689;27;20127;-81
2023/09/29 03:11:40;;;;;;;5.78;3.80;;;;;;;8.64;100.00;93391.94;2112287;28;20024;-81
2023/09/29 03:12:42;;;;;;;5.00;3.80;;;;;;;8.61;100.00;93392.75;2095739;28;20444;-81
2023/09/29 03:13:44;;;;;;;6.97;4.57;;;;;;;8.65;100.00;93396.09;2095723;28;20385;-82
2023/09/29 03:14:45;;;;;;;8.48;4.05;;;;;;;8.55;100.00;93393.16;2103857;28;20024;-82
2023/09/29 03:15:48;;;;;;;8.30;4.30;;;;;;;8.61;100.00;93393.50;2112180;28;20086;-79
2023/09/29 03:16:50;;;;;;;5.10;4.22;;;;;;;8.63;100.00;93393.84;2104210;28;20095;-83
2023/09/29 03:17:52;;;;;;;6.38;4.47;;;;;;;8.55;100.00;93387.81;2103702;28;20066;-81
2023/09/29 03:18:55;;;;;;;8.02;4.65;;;;;;;8.58;100.00;93380.97;2103716;28;20417;-82
2023/09/29 03:19:58;;;;;;;5.88;3.90;;;;;;;8.61;100.00;93390.84;2105267;28;20055;-82
2023/09/29 03:20:59;;;;;;;5.47;4.00;;;;;;;8.58;100.00;93386.28;2112081;28;20028;-80
2023/09/29 03:22:00;;;;;;;6.07;4.30;;;;;;;8.55;100.00;93393.16;2112336;28;20488;-83
2023/09/29 03:23:04;;;;;;;7.93;4.05;;;;;;;8.60;100.00;93391.22;2111939;28;20081;-79
2023/09/29 03:24:07;;;;;;;5.45;4.40;;;;;;;8.60;100.00;93393.88;2087966;28;20033;-80
2023/09/29 03:25:10;;;;;;;5.43;4.25;;;;;;;8.63;100.00;93393.09;2087427;28;20549;-80
2023/09/29 03:26:16;;;;;;;6.97;4.10;;;;;;;8.61;100.00;93392.75;2079463;28;20497;-81
2023/09/29 03:27:18;;;;;;;5.15;4.10;;;;;;;8.71;100.00;93395.28;2080499;28;20076;-81
2023/09/29 03:28:19;;;;;;;4.70;3.92;;;;;;;8.64;100.00;93390.03;2095602;28;20024;-81
2023/09/29 03:29:19;;;;;;;5.10;4.20;;;;;;;8.70;100.00;93390.38;2112160;28;20839;-78
2023/09/29 03:30:21;;;;;;;6.03;4.22;;;;;;;8.69;100.00;93402.16;2103586;28;20024;-82
2023/09/29 03:31:22;;;;;;;5.80;4.18;;;;;;;8.72;100.00;93394.13;2104085;28;20027;-80
2023/09/29 03:32:23;;;;;;;7.22;5.20;;;;;;;8.72;100.00;93396.03;2103776;28;20028;-80
2023/09/29 03:33:24;;;;;;;6.35;4.72;;;;;;;8.69;100.00;93389.63;2103643;28;20357;-83
2023/09/29 03:34:25;;;;;;;7.47;4.40;;;;;;;8.69;100.00;93394.16;2099784;28;20035;-82
2023/09/29 03:35:26;;;;;;;6.70;3.75;;;;;;;8.70;100.00;93388.47;2089679;28;20021;-80
2023/09/29 03:36:27;;;;;;;5.95;3.88;;;;;;;8.94;100.00;93396.56;2081633;28;20036;-81
2023/09/29 03:37:40;;;;;;;4.82;4.30;;;;;;;8.83;100.00;93386.03;2081699;28;20021;-82
2023/09/29 03:38:41;;;;;;;6.20;4.07;;;;;;;8.85;100.00;93394.38;2088672;28;20152;-80
2023/09/29 03:39:42;;;;;;;5.00;4.32;;;;;;;9.03;100.00;93392.28;2081817;28;20036;-82
2023/09/29 03:40:44;;;;;;;9.10;4.57;;;;;;;8.89;100.00;93391.69;2078015;28;20033;-80
2023/09/29 03:41:45;;;;;;;8.27;3.75;;;;;;;8.79;100.00;93394.06;2091960;28;20055;-79
2023/09/29 03:42:46;;;;;;;4.90;4.07;;;;;;;8.70;100.00;93398.38;2089967;28;20025;-81
2023/09/29 03:43:47;;;;;;;6.93;4.15;;;;;;;8.71;100.00;93395.28;2089711;28;20108;-80
2023/09/29 03:44:48;;;;;;;7.57;4.05;;;;;;;8.68;100.00;93393.41;2089881;28;20029;-80
2023/09/29 03:45:50;;;;;;;6.90;4.25;;;;;;;8.61;100.00;93392.75;2084830;28;20041;-82
2023/09/29 03:46:51;;;;;;;5.72;4.47;;;;;;;8.61;100.00;93395.41;2081371;28;20021;-80
2023/09/29 03:47:52;;;;;;;7.55;4.30;;;;;;;8.57;100.00;93392.78;2089727;28;20039;-82
2023/09/29 03:48:53;;;;;;;6.55;4.10;;;;;;;8.61;100.00;93396.16;2076379;28;20410;-79
2023/09/29 03:49:55;;;;;;;7.50;4.03;;;;;;;8.56;100.00;93392.03;2093433;28;20024;-79
2023/09/29 03:50:57;;;;;;;8.60;4.60;;;;;;;8.48;100.00;93395.16;2105021;28;20020;-83
2023/09/29 03:52:00;;;;;;;6.10;3.63;;;;;;;8.48;100.00;93392.47;2092883;28;20020;-79
2023/09/29 03:53:01;;;;;;;7.57;4.40;;;;;;;8.56;100.00;93394.69;2090229;28;20481;-82
2023/09/29 03:54:02;;;;;;;7.55;4.30;;;;;;;8.60;100.00;93391.22;2106255;28;20020;-81
2023/09/29 03:55:04;;;;;;;6.47;3.88;;;;;;;8.56;100.00;93394.69;2106354;28;20024;-81
2023/09/29 03:56:05;;;;;;;6.93;3.90;;;;;;;8.52;100.00;93396.63;2081641;28;20104;-80
2023/09/29 03:57:10;;;;;;;7.30;3.95;;;;;;;8.38;100.00;93396.75;2089855;28;20029;-82
2023/09/29 03:58:11;;;;;;;7.60;4.80;;;;;;;8.47;100.00;93398.94;2106546;28;20035;-82
2023/09/29 03:59:12;;;;;;;6.28;4.18;;;;;;;8.62;100.00;93397.66;2097624;28;20076;-80
2023/09/29 04:00:15;;;;;;;6.43;4.10;;;;;;;8.70;100.00;93399.13;2089706;28;20056;-80
2023/09/29 04:01:17;;;;;;;7.25;4.32;;;;;;;8.77;100.00;93398.28;2097718;28;20032;-81
2023/09/29 04:02:20;;;;;;;6.20;4.55;;;;;;;8.67;100.00;93396.47;2095859;28;20032;-82
2023/09/29 04:03:21;;;;;;;5.50;3.63;;;;;;;8.60;100.00;93399.97;2097723;28;20020;-81
2023/09/29 04:04:22;;;;;;;5.20;3.80;;;;;;;8.62;100.00;93400.34;2081448;28;20025;-81
2023/09/29 04:05:23;;;;;;;4.93;4.00;;;;;;;8.53;100.00;93405.38;2085199;28;20473;-82
2023/09/29 04:06:25;;;;;;;6.00;4.20;;;;;;;8.58;100.00;93405.69;2098067;28;20048;-82
2023/09/29 04:07:26;;;;;;;5.90;3.80;;;;;;;8.57;100.00;93401.53;2098065;28;20025;-82
2023/09/29 04:08:27;;;;;;;5.05;4.15;;;;;;;8.60;100.00;93402.63;2091389;28;20052;-81
2023/09/29 04:09:28;;;;;;;8.25;4.13;;;;;;;8.58;100.00;93403.03;2089755;28;20168;-82
2023/09/29 04:10:29;;;;;;;5.80;3.75;;;;;;;8.62;100.00;93402.25;2090330;28;20373;-81
2023/09/29 04:11:30;;;;;;;5.90;4.13;;;;;;;8.66;100.00;93406.38;2081445;28;20556;-80
2023/09/29 04:12:31;;;;;;;7.80;4.05;;;;;;;8.65;100.00;93407.53;2073047;28;20510;-80
2023/09/29 04:13:33;;;;;;;4.80;3.83;;;;;;;8.66;100.00;93410.97;2083519;28;20056;-79
2023/09/29 04:14:34;;;;;;;9.00;4.40;;;;;;;8.69;100.00;93410.94;2089682;28;20032;-81
2023/09/29 04:15:36;;;;;;;6.03;4.07;;;;;;;8.68;100.00;93411.31;2090147;28;20376;-82
2023/09/29 04:16:37;;;;;;;4.05;3.50;;;;;;;8.65;100.00;93414.75;2089322;28;20032;-80
2023/09/29 04:17:39;;;;;;;5.78;4.13;;;;;;;8.58;100.00;93416.34;2073282;28;20513;-80
2023/09/29 04:18:41;;;;;;;5.15;3.83;;;;;;;8.64;100.00;93418.59;2076668;28;20528;-81
2023/09/29 04:19:42;;;;;;;5.95;4.03;;;;;;;8.58;100.00;93421.69;2081872;28;20391;-80
2023/09/29 04:20:43;;;;;;;4.60;3.70;;;;;;;8.62;100.00;93407.56;2081383;28;20026;-81
2023/09/29 04:21:45;;;;;;;8.98;4.47;;;;;;;8.71;100.00;93407.88;2089664;28;20028;-80
2023/09/29 04:22:46;;;;;;;4.82;3.60;;;;;;;8.75;100.00;93408.59;2089395;28;20037;-80
2023/09/29 04:23:47;;;;;;;5.07;3.88;;;;;;;8.73;100.00;93416.97;2097964;28;20025;-81
2023/09/29 04:24:48;;;;;;;6.45;3.95;;;;;;;8.69;100.00;93412.81;2089639;28;20036;-81
2023/09/29 04:25:49;;;;;;;5.30;3.95;;;;;;;8.76;100.00;93412.75;2089445;28;20048;-81
2023/09/29 04:26:50;;;;;;;6.28;4.05;;;;;;;8.86;100.00;93414.56;2081214;28;20112;-80
2023/09/29 04:27:51;;;;;;;6.65;4.50;;;;;;;8.89;100.00;93418.34;2093879;28;20508;-82
2023/09/29 04:28:51;;;;;;;5.38;4.03;;;;;;;8.92;100.00;93407.66;2097066;28;20178;-80
2023/09/29 04:29:52;;;;;;;5.88;4.05;;;;;;;8.98;100.00;93414.03;2081685;28;20021;-80
2023/09/29 04:30:53;;;;;;;6.13;4.32;;;;;;;8.92;100.00;93417.56;2089249;28;20024;-82
2023/09/29 04:32:00;;;;;;;5.95;4.10;;;;;;;8.94;100.00;93408.00;2085153;28;20025;-81
2023/09/29 04:33:01;;;;;;;8.35;4.20;;;;;;;8.94;100.00;93404.56;2081160;28;20018;-81
2023/09/29 04:34:02;;;;;;;6.03;4.35;;;;;;;9.02;100.00;93409.44;2081236;28;20028;-80
2023/09/29 04:35:05;;;;;;;9.15;4.53;;;;;;;8.95;100.00;93406.84;2089346;28;20044;-81
2023/09/29 04:36:06;;;;;;;5.63;3.90;;;;;;;8.96;100.00;93411.03;2081386;28;20025;-81
2023/09/29 04:37:07;;;;;;;5.15;4.10;;;;;;;8.92;100.00;93409.56;2093829;28;20029;-81
2023/09/29 04:38:08;;;;;;;7.20;4.00;;;;;;;8.87;100.00;93413.41;2089345;28;20025;-80
2023/09/29 04:39:09;;;;;;;7.60;4.22;;;;;;;8.96;100.00;93404.94;2089270;28;20682;-80
2023/09/29 04:40:11;;;;;;;7.57;4.10;;;;;;;8.89;100.00;93408.44;2091347;28;20485;-81
2023/09/29 04:41:14;;;;;;;6.10;4.20;;;;;;;8.89;100.00;93410.34;2105967;28;20024;-82
2023/09/29 04:42:15;;;;;;;5.95;3.95;;;;;;;8.84;100.00;93416.88;2106241;28;20024;-80
2023/09/29 04:43:16;;;;;;;5.25;4.20;;;;;;;8.85;100.00;93413.03;2105900;28;20378;-81
2023/09/29 04:44:17;;;;;;;5.88;3.97;;;;;;;8.92;100.00;93417.56;2097677;28;20075;-81
2023/09/29 04:45:17;;;;;;;6.47;4.78;;;;;;;8.95;100.00;93411.41;2088910;28;20450;-79
2023/09/29 04:46:21;;;;;;;6.20;4.18;;;;;;;8.85;100.00;93423.72;2088714;28;20055;-81
2023/09/29 04:47:21;;;;;;;5.00;4.03;;;;;;;8.83;100.00;93415.38;2097684;28;20075;-82
2023/09/29 04:48:23;;;;;;;5.13;3.60;;;;;;;8.96;100.00;93418.28;2089161;28;20036;-83
2023/09/29 04:49:23;;;;;;;5.95;3.97;;;;;;;8.97;100.00;93414.44;2089395;28;20029;-81
2023/09/29 04:50:24;;;;;;;6.43;4.18;;;;;;;9.04;100.00;93409.03;2097700;28;20062;-80
2023/09/29 04:51:26;;;;;;;5.32;3.75;;;;;;;9.04;100.00;93419.69;2097503;28;20017;-82
2023/09/29 04:52:27;;;;;;;4.70;3.97;;;;;;;9.13;100.00;93417.31;2089350;28;20342;-81
2023/09/29 04:53:28;;;;;;;6.95;3.83;;;;;;;9.15;100.00;93417.66;2081004;28;20025;-79